createdAt,value
2024-02-02T00:02:06.201Z,47.20
2024-02-02T00:04:32.926Z,56.10
2024-02-02T00:06:59.496Z,52.00
2024-02-02T00:09:26.180Z,55.50
2024-02-02T00:11:52.924Z,55.28
2024-02-02T00:14:19.686Z,44.63
2024-02-02T00:16:46.673Z,50.85
2024-02-02T00:19:13.483Z,45.33
2024-02-02T00:21:40.178Z,49.55
2024-02-02T00:24:06.875Z,42.45
2024-02-02T00:26:33.415Z,58.40
2024-02-02T00:29:00.006Z,54.83
2024-02-02T00:31:26.492Z,46.80
2024-02-02T00:33:53.250Z,49.45
2024-02-02T00:36:20.131Z,59.80
2024-02-02T00:38:46.839Z,52.75
2024-02-02T00:41:13.372Z,60.72
2024-02-02T00:43:40.116Z,48.53
2024-02-02T00:46:06.672Z,52.28
2024-02-02T00:48:35.280Z,41.75
2024-02-02T00:51:02.582Z,53.58
2024-02-02T00:53:30.073Z,49.42
2024-02-02T00:55:56.613Z,56.45
2024-02-02T00:58:23.136Z,61.90
2024-02-02T01:00:49.688Z,41.03
2024-02-02T01:03:16.435Z,56.75
2024-02-02T01:05:43.146Z,59.13
2024-02-02T01:08:09.884Z,49.35
2024-02-02T01:10:36.571Z,52.28
2024-02-02T01:13:03.454Z,40.45
2024-02-02T01:15:30.157Z,53.33
2024-02-02T01:17:57.001Z,50.47
2024-02-02T01:20:23.851Z,58.53
2024-02-02T01:22:50.352Z,52.75
2024-02-02T01:25:16.926Z,54.13
2024-02-02T01:27:44.264Z,52.33
2024-02-02T01:30:14.194Z,45.13
2024-02-02T01:32:40.975Z,49.05
2024-02-02T01:35:09.391Z,50.03
2024-02-02T01:37:35.898Z,39.25
2024-02-02T01:40:02.616Z,53.55
2024-02-02T01:42:29.657Z,57.88
2024-02-02T01:44:56.260Z,40.80
2024-02-02T01:47:23.036Z,49.17
2024-02-02T01:49:49.721Z,63.35
2024-02-02T01:52:16.459Z,44.20
2024-02-02T01:54:43.208Z,45.35
2024-02-02T01:57:10.070Z,47.80
2024-02-02T01:59:37.155Z,47.40
2024-02-02T02:02:05.072Z,43.30
2024-02-02T02:04:31.809Z,55.17
2024-02-02T02:06:58.635Z,51.10
2024-02-02T02:09:25.495Z,44.72
2024-02-02T02:11:52.944Z,43.53
2024-02-02T02:14:19.912Z,57.40
2024-02-02T02:16:46.507Z,42.80
2024-02-02T02:19:17.756Z,34.33
2024-02-02T02:21:44.499Z,53.97
2024-02-02T02:24:11.661Z,43.65
2024-02-02T02:26:39.527Z,48.65
2024-02-02T02:29:06.200Z,56.10
2024-02-02T02:31:32.797Z,47.90
2024-02-02T02:33:59.809Z,49.83
2024-02-02T02:36:27.561Z,49.17
2024-02-02T02:38:54.513Z,41.55
2024-02-02T02:41:21.246Z,51.97
2024-02-02T02:43:48.048Z,58.22
2024-02-02T02:46:14.589Z,46.50
2024-02-02T02:48:41.263Z,49.03
2024-02-02T02:51:07.821Z,43.92
2024-02-02T02:53:35.639Z,48.78
2024-02-02T02:56:02.267Z,45.80
2024-02-02T02:58:28.990Z,40.65
2024-02-02T03:01:01.595Z,47.72
2024-02-02T03:03:28.366Z,54.40
2024-02-02T03:05:55.068Z,49.85
2024-02-02T03:08:21.774Z,57.80
2024-02-02T03:10:48.640Z,51.42
2024-02-02T03:13:15.177Z,58.00
2024-02-02T03:15:42.871Z,46.50
2024-02-02T03:18:11.255Z,50.13
2024-02-02T03:20:37.814Z,55.20
2024-02-02T03:23:04.744Z,34.90
2024-02-02T03:25:31.719Z,44.35
2024-02-02T03:27:58.268Z,41.55
2024-02-02T03:30:25.125Z,54.05
2024-02-02T03:32:51.854Z,48.55
2024-02-02T03:35:18.448Z,40.53
2024-02-02T03:37:44.980Z,34.58
2024-02-02T03:40:12.335Z,41.92
2024-02-02T03:42:38.954Z,54.00
2024-02-02T03:45:06.897Z,50.83
2024-02-02T03:47:33.621Z,44.38
2024-02-02T03:50:00.437Z,49.83
2024-02-02T03:52:27.316Z,41.47
2024-02-02T03:54:53.852Z,40.30
2024-02-02T03:57:20.498Z,58.83
2024-02-02T03:59:47.288Z,49.63
2024-02-02T04:02:13.857Z,49.65
2024-02-02T04:04:40.676Z,55.00
2024-02-02T04:07:07.502Z,44.75
2024-02-02T04:09:34.730Z,58.97
2024-02-02T04:12:01.588Z,40.92
2024-02-02T04:14:31.393Z,44.80
2024-02-02T04:16:58.255Z,59.00
2024-02-02T04:19:25.143Z,56.22
2024-02-02T04:21:51.801Z,47.53
2024-02-02T04:24:18.537Z,52.17
2024-02-02T04:26:45.071Z,49.53
2024-02-02T04:29:12.307Z,50.05
2024-02-02T04:31:38.851Z,48.38
2024-02-02T04:34:05.724Z,57.35
2024-02-02T04:36:32.492Z,65.90
2024-02-02T04:38:59.181Z,44.10
2024-02-02T04:41:25.953Z,41.67
2024-02-02T04:43:52.532Z,57.30
2024-02-02T04:46:19.074Z,59.15
2024-02-02T04:48:45.718Z,49.25
2024-02-02T04:51:12.544Z,52.42
2024-02-02T04:53:39.141Z,51.28
2024-02-02T04:56:05.858Z,56.38
2024-02-02T04:58:32.449Z,51.05
2024-02-02T05:00:59.120Z,55.75
2024-02-02T05:03:25.814Z,52.38
2024-02-02T05:05:52.392Z,56.83
2024-02-02T05:08:19.443Z,62.10
2024-02-02T05:10:46.093Z,59.72
2024-02-02T05:13:12.630Z,62.35
2024-02-02T05:15:39.656Z,50.92
2024-02-02T05:18:07.923Z,54.13
2024-02-02T05:20:34.591Z,60.67
2024-02-02T05:23:01.177Z,63.47
2024-02-02T05:25:27.848Z,73.53
2024-02-02T05:27:54.468Z,55.47
2024-02-02T05:30:21.820Z,61.95
2024-02-02T05:32:48.552Z,61.88
2024-02-02T05:35:15.080Z,50.25
2024-02-02T05:37:41.901Z,68.45
2024-02-02T05:40:10.019Z,61.58
2024-02-02T05:42:36.709Z,67.00
2024-02-02T05:45:03.452Z,63.40
2024-02-02T05:47:30.108Z,80.68
2024-02-02T05:49:56.860Z,67.60
2024-02-02T05:52:23.552Z,61.10
2024-02-02T05:54:50.075Z,59.33
2024-02-02T05:57:16.833Z,66.15
2024-02-02T05:59:43.430Z,71.10
2024-02-02T06:02:09.955Z,66.95
2024-02-02T06:04:36.526Z,55.25
2024-02-02T06:07:03.335Z,61.20
2024-02-02T06:09:30.225Z,76.43
2024-02-02T06:11:58.619Z,76.38
2024-02-02T06:14:26.857Z,57.47
2024-02-02T06:16:53.387Z,60.35
2024-02-02T06:19:20.070Z,72.35
2024-02-02T06:21:46.707Z,68.53
2024-02-02T06:24:13.654Z,85.55
2024-02-02T06:26:40.502Z,68.82
2024-02-02T06:29:07.028Z,74.75
2024-02-02T06:31:33.596Z,48.67
2024-02-02T06:34:00.233Z,65.45
2024-02-02T06:36:28.430Z,57.40
2024-02-02T06:38:57.040Z,69.80
2024-02-02T06:41:23.910Z,62.08
2024-02-02T06:43:51.391Z,64.90
2024-02-02T06:46:18.328Z,71.50
2024-02-02T06:48:48.832Z,55.75
2024-02-02T06:51:15.590Z,72.93
2024-02-02T06:53:42.145Z,66.93
2024-02-02T06:56:39.075Z,65.38
2024-02-02T06:59:07.237Z,61.88
2024-02-02T07:01:34.447Z,64.55
2024-02-02T07:04:04.191Z,64.22
2024-02-02T07:06:33.715Z,70.47
2024-02-02T07:09:02.492Z,68.18
2024-02-02T07:11:35.441Z,67.10
2024-02-02T07:14:10.263Z,67.53
2024-02-02T07:16:37.975Z,61.75
2024-02-02T07:19:05.218Z,65.15
2024-02-02T07:21:34.606Z,72.55
2024-02-02T07:24:01.393Z,62.90
2024-02-02T07:26:31.094Z,70.20
2024-02-02T07:28:59.156Z,63.20
2024-02-02T07:31:35.035Z,66.45
2024-02-02T07:34:21.492Z,65.45
2024-02-02T07:36:48.103Z,68.85
2024-02-02T07:39:28.236Z,75.22
2024-02-02T07:44:22.992Z,64.13
2024-02-02T07:46:49.505Z,65.32
2024-02-02T07:49:16.176Z,69.45
2024-02-02T07:51:44.429Z,65.55
2024-02-02T07:54:11.761Z,61.72
2024-02-02T07:56:38.376Z,75.72
2024-02-02T07:59:04.973Z,67.75
2024-02-02T08:01:34.361Z,61.47
2024-02-02T08:04:04.844Z,61.13
2024-02-02T08:06:31.596Z,66.72
2024-02-02T08:08:58.585Z,63.50
2024-02-02T08:11:26.876Z,70.40
2024-02-02T08:13:53.495Z,66.53
2024-02-02T08:16:20.126Z,66.38
2024-02-02T08:18:47.120Z,69.13
2024-02-02T08:21:13.887Z,75.97
2024-02-02T08:23:40.520Z,75.45
2024-02-02T08:26:07.588Z,69.70
2024-02-02T08:28:42.037Z,76.25
2024-02-02T08:31:15.478Z,65.20
2024-02-02T08:33:43.746Z,60.92
2024-02-02T08:36:11.797Z,70.28
2024-02-02T08:38:38.694Z,70.18
2024-02-02T08:41:06.028Z,74.68
2024-02-02T08:43:32.572Z,67.38
2024-02-02T08:46:14.624Z,80.72
2024-02-02T08:48:46.604Z,70.05
2024-02-02T08:51:22.536Z,63.67
2024-02-02T08:53:50.379Z,71.85
2024-02-02T08:56:17.152Z,62.38
2024-02-02T08:58:43.681Z,65.10
2024-02-02T09:01:45.245Z,61.05
2024-02-02T09:04:46.963Z,64.65
2024-02-02T09:07:18.276Z,60.15
2024-02-02T09:09:45.258Z,52.63
2024-02-02T09:12:12.073Z,66.90
2024-02-02T09:14:38.699Z,67.07
2024-02-02T09:17:07.497Z,65.35
2024-02-02T09:19:46.918Z,69.65
2024-02-02T09:22:17.381Z,56.60
2024-02-02T09:27:40.187Z,70.43
2024-02-02T09:30:19.052Z,62.88
2024-02-02T09:32:46.123Z,57.75
2024-02-02T09:35:54.132Z,69.78
2024-02-02T09:38:20.765Z,62.33
2024-02-02T09:41:02.390Z,75.22
2024-02-02T09:44:00.666Z,51.97
2024-02-02T09:47:03.612Z,63.40
2024-02-02T09:49:41.525Z,59.75
2024-02-02T09:52:24.466Z,59.75
2024-02-02T09:55:02.534Z,54.33
2024-02-02T09:58:07.667Z,60.42
2024-02-02T10:00:58.461Z,60.67
2024-02-02T10:03:35.325Z,59.60
2024-02-02T10:06:26.893Z,66.57
2024-02-02T10:09:18.853Z,63.20
2024-02-02T10:12:10.305Z,59.47
2024-02-02T10:15:18.509Z,57.33
2024-02-02T10:18:06.276Z,61.05
2024-02-02T10:20:42.068Z,55.83
2024-02-02T10:23:14.922Z,61.33
2024-02-02T10:25:54.634Z,62.67
2024-02-02T10:28:23.827Z,57.13
2024-02-02T10:31:34.011Z,58.47
2024-02-02T10:36:45.636Z,50.08
2024-02-02T10:39:37.252Z,61.33
2024-02-02T10:42:06.796Z,63.75
2024-02-02T10:44:43.270Z,54.22
2024-02-02T10:47:45.335Z,54.58
2024-02-02T10:50:43.960Z,61.05
2024-02-02T10:53:29.193Z,64.78
2024-02-02T10:56:15.175Z,52.72
2024-02-02T10:59:04.711Z,62.47
2024-02-02T11:01:35.570Z,44.65
2024-02-02T11:04:26.115Z,60.30
2024-02-02T11:07:07.202Z,54.80
2024-02-02T11:09:56.259Z,49.45
2024-02-02T11:12:45.558Z,55.40
2024-02-02T11:15:43.131Z,51.30
2024-02-02T11:18:31.103Z,54.90
2024-02-02T11:21:25.113Z,53.33
2024-02-02T11:24:00.581Z,51.80
2024-02-02T11:26:38.557Z,54.28
2024-02-02T11:29:26.528Z,55.75
2024-02-02T11:32:08.445Z,59.92
2024-02-02T11:34:53.466Z,52.13
2024-02-02T11:37:32.620Z,60.95
2024-02-02T11:40:09.315Z,55.72
2024-02-02T11:42:40.060Z,49.58
2024-02-02T11:45:16.564Z,52.58
2024-02-02T11:48:01.781Z,54.53
2024-02-02T11:50:34.375Z,53.67
2024-02-02T11:53:23.622Z,57.72
2024-02-02T11:55:56.741Z,62.30
2024-02-02T11:58:25.198Z,61.03
2024-02-02T12:01:11.400Z,55.28
2024-02-02T12:04:02.335Z,67.18
2024-02-02T12:06:37.229Z,55.97
2024-02-02T12:09:19.580Z,59.40
2024-02-02T12:11:52.446Z,66.95
2024-02-02T12:14:43.170Z,69.68
2024-02-02T12:17:12.002Z,67.63
2024-02-02T12:19:38.658Z,52.85
2024-02-02T12:22:05.501Z,58.08
2024-02-02T12:24:32.811Z,63.38
2024-02-02T12:26:59.606Z,69.43
2024-02-02T12:29:26.694Z,65.80
2024-02-02T12:31:53.307Z,62.58
2024-02-02T12:34:20.154Z,68.03
2024-02-02T12:36:46.837Z,62.40
2024-02-02T12:39:13.540Z,52.28
2024-02-02T12:41:40.661Z,63.88
2024-02-02T12:44:08.037Z,65.43
2024-02-02T12:46:48.521Z,50.20
2024-02-02T12:49:15.368Z,54.35
2024-02-02T12:51:44.081Z,60.97
2024-02-02T12:54:11.863Z,57.25
2024-02-02T12:56:38.832Z,52.38
2024-02-02T12:59:06.900Z,55.97
2024-02-02T13:01:34.074Z,55.03
2024-02-02T13:04:01.189Z,47.75
2024-02-02T13:06:27.961Z,56.50
2024-02-02T13:08:55.031Z,49.05
2024-02-02T13:11:24.835Z,52.75
2024-02-02T13:13:51.346Z,53.20
2024-02-02T13:16:30.793Z,55.00
2024-02-02T13:18:59.337Z,59.22
2024-02-02T13:21:30.268Z,54.72
2024-02-02T13:23:57.925Z,51.45
2024-02-02T13:26:38.058Z,48.47
2024-02-02T13:29:08.967Z,47.55
2024-02-02T13:31:38.841Z,49.15
2024-02-02T13:34:06.695Z,54.75
2024-02-02T13:36:40.300Z,55.00
2024-02-02T13:39:07.419Z,47.97
2024-02-02T13:41:37.802Z,52.50
2024-02-02T13:44:09.224Z,49.97
2024-02-02T13:46:46.033Z,63.30
2024-02-02T13:49:26.387Z,66.38
2024-02-02T13:54:21.243Z,50.70
2024-02-02T13:56:48.176Z,50.30
2024-02-02T13:59:19.126Z,49.13
2024-02-02T14:01:47.118Z,54.92
2024-02-02T14:04:23.177Z,58.15
2024-02-02T14:06:50.013Z,60.97
2024-02-02T14:09:23.776Z,54.45
2024-02-02T14:11:51.625Z,64.97
2024-02-02T14:14:25.121Z,51.58
2024-02-02T14:16:51.829Z,49.45
2024-02-02T14:19:19.689Z,47.65
2024-02-02T14:21:46.454Z,62.55
2024-02-02T14:24:17.243Z,47.92
2024-02-02T14:26:57.063Z,53.05
2024-02-02T14:29:27.602Z,55.05
2024-02-02T14:31:56.187Z,49.50
2024-02-02T14:34:24.246Z,56.50
2024-02-02T14:36:51.439Z,49.03
2024-02-02T14:39:26.425Z,59.60
2024-02-02T14:41:54.770Z,49.50
2024-02-02T14:44:21.398Z,52.47
2024-02-02T14:46:48.026Z,52.80
2024-02-02T14:49:15.235Z,64.50
2024-02-02T14:51:42.175Z,55.10
2024-02-02T14:54:09.467Z,58.50
2024-02-02T14:56:37.725Z,52.58
2024-02-02T14:59:13.664Z,51.55
2024-02-02T15:01:41.308Z,47.63
2024-02-02T15:04:08.994Z,40.55
2024-02-02T15:06:38.192Z,44.15
2024-02-02T15:09:10.272Z,47.47
2024-02-02T15:11:37.384Z,38.95
2024-02-02T15:14:03.997Z,45.72
2024-02-02T15:16:32.365Z,44.58
2024-02-02T15:18:59.180Z,48.85
2024-02-02T15:21:26.005Z,41.25
2024-02-02T15:23:52.560Z,36.40
2024-02-02T15:26:19.065Z,54.67
2024-02-02T15:28:45.562Z,45.00
2024-02-02T15:31:12.788Z,45.80
2024-02-02T15:33:39.419Z,46.85
2024-02-02T15:36:06.390Z,41.53
2024-02-02T15:38:32.923Z,45.50
2024-02-02T15:41:00.573Z,50.67
2024-02-02T15:43:27.742Z,48.03
2024-02-02T15:45:55.231Z,56.97
2024-02-02T15:48:22.576Z,50.83
2024-02-02T15:50:50.471Z,56.72
2024-02-02T15:53:19.159Z,50.40
2024-02-02T15:55:48.309Z,45.05
2024-02-02T15:58:14.891Z,47.38
2024-02-02T16:00:41.450Z,47.58
2024-02-02T16:03:08.892Z,49.15
2024-02-02T16:05:36.406Z,51.63
2024-02-02T16:08:03.015Z,49.30
2024-02-02T16:10:30.857Z,57.30
2024-02-02T16:13:00.262Z,60.88
2024-02-02T16:15:28.614Z,47.75
2024-02-02T16:17:55.369Z,47.50
2024-02-02T16:20:22.019Z,46.30
2024-02-02T16:22:48.563Z,50.38
2024-02-02T16:25:21.017Z,48.08
2024-02-02T16:27:47.780Z,48.58
2024-02-02T16:30:14.846Z,49.03
2024-02-02T16:32:41.463Z,54.28
2024-02-02T16:35:09.071Z,50.67
2024-02-02T16:37:39.342Z,48.72
2024-02-02T16:40:11.166Z,40.92
2024-02-02T16:42:41.246Z,39.97
2024-02-02T16:45:09.070Z,40.20
2024-02-02T16:47:35.815Z,48.80
2024-02-02T16:50:02.890Z,44.10
2024-02-02T16:52:29.530Z,43.85
2024-02-02T16:54:56.072Z,41.35
2024-02-02T16:57:22.594Z,45.25
2024-02-02T16:59:49.074Z,41.60
2024-02-02T17:02:15.655Z,42.38
2024-02-02T17:04:43.161Z,41.13
2024-02-02T17:07:10.424Z,39.95
2024-02-02T17:09:40.201Z,41.60
2024-02-02T17:12:09.895Z,39.13
2024-02-02T17:14:36.439Z,42.50
2024-02-02T17:17:02.972Z,42.20
2024-02-02T17:19:29.854Z,40.45
2024-02-02T17:21:56.548Z,40.25
2024-02-02T17:24:23.118Z,41.67
2024-02-02T17:26:49.786Z,40.00
2024-02-02T17:29:18.256Z,40.47
2024-02-02T17:31:47.188Z,41.45
2024-02-02T17:34:14.638Z,40.83
2024-02-02T17:36:41.457Z,41.53
2024-02-02T17:39:08.215Z,43.75
2024-02-02T17:41:34.958Z,44.80
2024-02-02T17:44:01.571Z,50.08
2024-02-02T17:46:28.119Z,51.60
2024-02-02T17:48:54.679Z,58.65
2024-02-02T17:51:22.872Z,51.17
2024-02-02T17:53:50.085Z,48.30
2024-02-02T17:56:18.250Z,63.42
2024-02-02T17:58:44.797Z,56.28
2024-02-02T18:01:11.962Z,56.22
2024-02-02T18:03:38.705Z,61.53
2024-02-02T18:06:06.158Z,53.97
2024-02-02T18:08:32.925Z,54.38
2024-02-02T18:11:00.555Z,59.85
2024-02-02T18:13:27.197Z,52.03
2024-02-02T18:15:54.062Z,56.83
2024-02-02T18:18:22.951Z,64.22
2024-02-02T18:20:49.748Z,51.97
2024-02-02T18:23:16.287Z,54.78
2024-02-02T18:25:42.847Z,62.25
2024-02-02T18:28:13.776Z,58.35
2024-02-02T18:30:43.578Z,58.55
2024-02-02T18:33:10.469Z,68.75
2024-02-02T18:35:37.162Z,63.03
2024-02-02T18:38:03.861Z,68.93
2024-02-02T18:40:30.467Z,69.90
2024-02-02T18:42:57.315Z,73.72
2024-02-02T18:45:23.945Z,75.88
2024-02-02T18:47:50.730Z,80.60
2024-02-02T18:50:19.275Z,73.82
2024-02-02T18:52:50.046Z,62.60
2024-02-02T18:55:16.636Z,58.05
2024-02-02T18:57:43.315Z,58.80
2024-02-02T19:00:10.555Z,61.85
2024-02-02T19:02:37.160Z,70.38
2024-02-02T19:05:04.100Z,62.47
2024-02-02T19:07:33.540Z,62.85
2024-02-02T19:10:00.275Z,60.78
2024-02-02T19:12:27.030Z,60.97
2024-02-02T19:14:53.922Z,64.28
2024-02-02T19:17:20.449Z,68.72
2024-02-02T19:19:47.095Z,61.17
2024-02-02T19:22:13.633Z,58.80
2024-02-02T19:24:40.218Z,64.53
2024-02-02T19:27:06.867Z,65.30
2024-02-02T19:29:33.383Z,60.83
2024-02-02T19:31:59.866Z,57.22
2024-02-02T19:34:26.550Z,58.17
2024-02-02T19:36:53.116Z,73.88
2024-02-02T19:39:19.646Z,65.55
2024-02-02T19:41:47.118Z,58.47
2024-02-02T19:44:13.739Z,57.05
2024-02-02T19:46:40.211Z,59.95
2024-02-02T19:49:09.521Z,58.78
2024-02-02T19:51:39.168Z,60.38
2024-02-02T19:54:06.091Z,57.38
2024-02-02T19:56:32.658Z,62.92
2024-02-02T19:58:59.190Z,62.08
2024-02-02T20:01:26.949Z,58.90
2024-02-02T20:03:54.074Z,64.45
2024-02-02T20:06:21.120Z,63.40
2024-02-02T20:08:49.140Z,58.67
2024-02-02T20:11:19.964Z,62.60
2024-02-02T20:13:47.407Z,55.38
2024-02-02T20:16:19.181Z,55.83
2024-02-02T20:18:46.164Z,50.05
2024-02-02T20:21:14.568Z,57.60
2024-02-02T20:23:41.378Z,49.63
2024-02-02T20:26:09.287Z,57.17
2024-02-02T20:28:35.878Z,55.45
2024-02-02T20:31:03.730Z,60.80
2024-02-02T20:33:30.459Z,57.58
2024-02-02T20:35:57.280Z,47.03
2024-02-02T20:38:24.071Z,59.53
2024-02-02T20:40:50.595Z,48.33
2024-02-02T20:43:17.092Z,62.95
2024-02-02T20:45:43.709Z,44.50
2024-02-02T20:48:10.378Z,53.67
2024-02-02T20:50:37.175Z,51.40
2024-02-02T20:53:03.908Z,50.60
2024-02-02T20:55:30.421Z,49.38
2024-02-02T20:58:01.935Z,47.97
2024-02-02T21:00:28.823Z,46.95
2024-02-02T21:02:55.397Z,40.72
2024-02-02T21:05:22.276Z,43.30
2024-02-02T21:07:49.061Z,46.55
2024-02-02T21:10:15.702Z,42.83
2024-02-02T21:12:42.786Z,36.15
2024-02-02T21:15:09.728Z,37.30
2024-02-02T21:17:37.989Z,37.58
2024-02-02T21:20:04.944Z,40.60
2024-02-02T21:22:34.446Z,34.10
2024-02-02T21:25:01.034Z,37.33
2024-02-02T21:27:27.547Z,38.88
2024-02-02T21:29:54.051Z,34.95
2024-02-02T21:32:20.565Z,42.85
2024-02-02T21:34:47.139Z,33.92
2024-02-02T21:37:14.805Z,34.13
2024-02-02T21:39:41.383Z,36.53
2024-02-02T21:42:07.973Z,31.05
2024-02-02T21:44:37.489Z,25.45
2024-02-02T21:47:04.573Z,37.58
2024-02-02T21:49:34.395Z,36.53
2024-02-02T21:52:01.080Z,31.60
2024-02-02T21:54:28.988Z,34.88
2024-02-02T21:56:55.719Z,29.38
2024-02-02T21:59:22.290Z,30.08
2024-02-02T22:01:48.789Z,25.83
2024-02-02T22:04:15.416Z,32.65
2024-02-02T22:06:41.982Z,28.60
2024-02-02T22:09:09.604Z,36.45
2024-02-02T22:11:36.402Z,35.00
2024-02-02T22:14:02.979Z,29.23
2024-02-02T22:16:29.811Z,32.10
2024-02-02T22:18:57.103Z,27.73
2024-02-02T22:21:25.278Z,32.22
2024-02-02T22:23:52.008Z,28.30
2024-02-02T22:26:21.867Z,35.45
2024-02-02T22:28:49.033Z,28.67
2024-02-02T22:31:22.636Z,24.70
2024-02-02T22:33:50.631Z,24.23
2024-02-02T22:36:21.980Z,25.77
2024-02-02T22:38:49.590Z,31.55
2024-02-02T22:41:33.056Z,22.20
2024-02-02T22:44:02.225Z,26.60
2024-02-02T22:46:33.948Z,28.58
2024-02-02T22:49:01.615Z,29.55
2024-02-02T22:51:28.435Z,30.90
2024-02-02T22:53:54.978Z,29.83
2024-02-02T22:56:21.592Z,32.88
2024-02-02T22:58:48.191Z,28.77
2024-02-02T23:01:14.981Z,27.95
2024-02-02T23:03:41.791Z,29.13
2024-02-02T23:06:08.568Z,33.22
2024-02-02T23:08:35.366Z,25.30
2024-02-02T23:11:01.940Z,25.30
2024-02-02T23:13:28.604Z,26.85
2024-02-02T23:15:57.192Z,27.73
2024-02-02T23:18:25.298Z,24.13
2024-02-02T23:20:53.548Z,30.30
2024-02-02T23:23:20.307Z,27.13
2024-02-02T23:25:47.008Z,26.50
2024-02-02T23:28:13.865Z,30.30
2024-02-02T23:30:40.872Z,24.20
2024-02-02T23:33:07.693Z,28.23
2024-02-02T23:35:34.325Z,23.25
2024-02-02T23:38:00.986Z,37.90
2024-02-02T23:40:27.498Z,27.27
2024-02-02T23:42:54.071Z,28.65
2024-02-02T23:45:20.754Z,27.70
2024-02-02T23:47:47.307Z,25.23
2024-02-02T23:50:14.064Z,29.67
2024-02-02T23:52:40.816Z,30.33
2024-02-02T23:55:08.121Z,30.05
2024-02-02T23:57:35.133Z,30.95
